sensor_id;sensor_type;location;lat;lon;timestamp;temperature;humidity
8591;DHT22;4333;48.322;14.340;2023-04-25T00:01:49;6.90;99.90
8591;DHT22;4333;48.322;14.340;2023-04-25T00:04:16;6.80;99.90
8591;DHT22;4333;48.322;14.340;2023-04-25T00:06:42;6.70;99.90
8591;DHT22;4333;48.322;14.340;2023-04-25T00:09:08;6.60;99.90
8591;DHT22;4333;48.322;14.340;2023-04-25T00:11:35;6.60;99.90
8591;DHT22;4333;48.322;14.340;2023-04-25T00:14:02;6.60;99.90
8591;DHT22;4333;48.322;14.340;2023-04-25T00:16:29;6.70;99.90
8591;DHT22;4333;48.322;14.340;2023-04-25T00:18:56;6.60;99.90
8591;DHT22;4333;48.322;14.340;2023-04-25T00:21:24;6.60;99.90
8591;DHT22;4333;48.322;14.340;2023-04-25T00:23:54;6.60;99.90
8591;DHT22;4333;48.322;14.340;2023-04-25T00:26:20;6.50;99.90
8591;DHT22;4333;48.322;14.340;2023-04-25T00:28:48;6.40;99.90
8591;DHT22;4333;48.322;14.340;2023-04-25T00:31:16;6.50;99.90
8591;DHT22;4333;48.322;14.340;2023-04-25T00:33:42;6.50;99.90
8591;DHT22;4333;48.322;14.340;2023-04-25T00:36:10;6.40;99.90
8591;DHT22;4333;48.322;14.340;2023-04-25T00:38:39;6.30;99.90
8591;DHT22;4333;48.322;14.340;2023-04-25T00:41:07;6.30;99.90
8591;DHT22;4333;48.322;14.340;2023-04-25T00:43:33;6.30;99.90
8591;DHT22;4333;48.322;14.340;2023-04-25T00:46:02;6.30;99.90
8591;DHT22;4333;48.322;14.340;2023-04-25T00:48:28;6.30;99.90
8591;DHT22;4333;48.322;14.340;2023-04-25T00:50:56;6.30;99.90
8591;DHT22;4333;48.322;14.340;2023-04-25T00:53:23;6.30;99.90
8591;DHT22;4333;48.322;14.340;2023-04-25T00:55:50;6.30;99.90
8591;DHT22;4333;48.322;14.340;2023-04-25T00:58:19;6.30;99.90
8591;DHT22;4333;48.322;14.340;2023-04-25T01:00:46;6.20;99.90
8591;DHT22;4333;48.322;14.340;2023-04-25T01:03:13;6.30;99.90
8591;DHT22;4333;48.322;14.340;2023-04-25T01:05:44;6.30;99.90
8591;DHT22;4333;48.322;14.340;2023-04-25T01:08:14;6.20;99.90
8591;DHT22;4333;48.322;14.340;2023-04-25T01:10:40;6.20;99.90
8591;DHT22;4333;48.322;14.340;2023-04-25T01:13:06;6.20;99.90
8591;DHT22;4333;48.322;14.340;2023-04-25T01:15:34;6.10;99.90
8591;DHT22;4333;48.322;14.340;2023-04-25T01:18:03;6.10;99.90
8591;DHT22;4333;48.322;14.340;2023-04-25T01:20:33;6.00;99.90
8591;DHT22;4333;48.322;14.340;2023-04-25T01:23:00;6.00;99.90
8591;DHT22;4333;48.322;14.340;2023-04-25T01:25:29;6.00;99.90
8591;DHT22;4333;48.322;14.340;2023-04-25T01:27:57;5.90;99.90
8591;DHT22;4333;48.322;14.340;2023-04-25T01:30:30;5.90;99.90
8591;DHT22;4333;48.322;14.340;2023-04-25T01:32:59;5.90;99.90
8591;DHT22;4333;48.322;14.340;2023-04-25T01:35:25;5.90;99.90
8591;DHT22;4333;48.322;14.340;2023-04-25T01:37:54;5.90;99.90
8591;DHT22;4333;48.322;14.340;2023-04-25T01:40:21;6.10;99.90
8591;DHT22;4333;48.322;14.340;2023-04-25T01:42:48;6.30;99.90
8591;DHT22;4333;48.322;14.340;2023-04-25T01:45:14;6.20;99.90
8591;DHT22;4333;48.322;14.340;2023-04-25T01:47:40;6.00;99.90
8591;DHT22;4333;48.322;14.340;2023-04-25T01:50:08;5.90;99.90
8591;DHT22;4333;48.322;14.340;2023-04-25T01:52:36;5.80;99.90
8591;DHT22;4333;48.322;14.340;2023-04-25T01:55:03;5.80;99.90
8591;DHT22;4333;48.322;14.340;2023-04-25T01:57:29;5.70;99.90
8591;DHT22;4333;48.322;14.340;2023-04-25T01:59:59;5.70;99.90
8591;DHT22;4333;48.322;14.340;2023-04-25T02:02:26;5.70;99.90
8591;DHT22;4333;48.322;14.340;2023-04-25T02:04:52;5.90;99.90
8591;DHT22;4333;48.322;14.340;2023-04-25T02:07:19;6.00;99.90
8591;DHT22;4333;48.322;14.340;2023-04-25T02:09:45;6.00;99.90
8591;DHT22;4333;48.322;14.340;2023-04-25T02:12:14;6.00;99.90
8591;DHT22;4333;48.322;14.340;2023-04-25T02:14:42;5.90;99.90
8591;DHT22;4333;48.322;14.340;2023-04-25T02:17:08;5.90;99.90
8591;DHT22;4333;48.322;14.340;2023-04-25T02:19:40;5.90;99.90
8591;DHT22;4333;48.322;14.340;2023-04-25T02:22:08;5.80;99.90
8591;DHT22;4333;48.322;14.340;2023-04-25T02:24:36;5.90;99.90
8591;DHT22;4333;48.322;14.340;2023-04-25T02:27:02;5.90;99.90
8591;DHT22;4333;48.322;14.340;2023-04-25T02:29:31;5.80;99.90
8591;DHT22;4333;48.322;14.340;2023-04-25T02:31:57;5.90;99.90
8591;DHT22;4333;48.322;14.340;2023-04-25T02:34:28;5.90;99.90
8591;DHT22;4333;48.322;14.340;2023-04-25T02:36:56;5.90;99.90
8591;DHT22;4333;48.322;14.340;2023-04-25T02:39:24;5.80;99.90
8591;DHT22;4333;48.322;14.340;2023-04-25T02:41:53;5.70;99.90
8591;DHT22;4333;48.322;14.340;2023-04-25T02:44:19;5.70;99.90
8591;DHT22;4333;48.322;14.340;2023-04-25T02:46:47;5.70;99.90
8591;DHT22;4333;48.322;14.340;2023-04-25T02:49:13;5.70;99.90
8591;DHT22;4333;48.322;14.340;2023-04-25T02:51:39;5.70;99.90
8591;DHT22;4333;48.322;14.340;2023-04-25T02:54:05;5.70;99.90
8591;DHT22;4333;48.322;14.340;2023-04-25T02:56:31;5.60;99.90
8591;DHT22;4333;48.322;14.340;2023-04-25T02:59:00;5.60;99.90
8591;DHT22;4333;48.322;14.340;2023-04-25T03:01:30;5.50;99.90
8591;DHT22;4333;48.322;14.340;2023-04-25T03:03:55;5.50;99.90
8591;DHT22;4333;48.322;14.340;2023-04-25T03:06:21;5.50;99.90
8591;DHT22;4333;48.322;14.340;2023-04-25T03:08:47;5.40;99.90
8591;DHT22;4333;48.322;14.340;2023-04-25T03:11:13;5.40;99.90
8591;DHT22;4333;48.322;14.340;2023-04-25T03:13:38;5.40;99.90
8591;DHT22;4333;48.322;14.340;2023-04-25T03:16:08;5.40;99.90
8591;DHT22;4333;48.322;14.340;2023-04-25T03:18:36;5.30;99.90
8591;DHT22;4333;48.322;14.340;2023-04-25T03:21:02;5.20;99.90
8591;DHT22;4333;48.322;14.340;2023-04-25T03:23:27;5.10;99.90
8591;DHT22;4333;48.322;14.340;2023-04-25T03:25:57;5.10;99.90
8591;DHT22;4333;48.322;14.340;2023-04-25T03:28:23;5.10;99.90
8591;DHT22;4333;48.322;14.340;2023-04-25T03:30:51;5.10;99.90
8591;DHT22;4333;48.322;14.340;2023-04-25T03:33:19;5.00;99.90
8591;DHT22;4333;48.322;14.340;2023-04-25T03:35:48;4.90;99.90
8591;DHT22;4333;48.322;14.340;2023-04-25T03:38:15;4.90;99.90
8591;DHT22;4333;48.322;14.340;2023-04-25T03:40:44;4.80;99.90
8591;DHT22;4333;48.322;14.340;2023-04-25T03:43:10;4.80;99.90
8591;DHT22;4333;48.322;14.340;2023-04-25T03:45:37;4.70;99.90
8591;DHT22;4333;48.322;14.340;2023-04-25T03:48:03;4.70;99.90
8591;DHT22;4333;48.322;14.340;2023-04-25T03:50:31;4.70;99.90
8591;DHT22;4333;48.322;14.340;2023-04-25T03:52:59;4.70;99.90
8591;DHT22;4333;48.322;14.340;2023-04-25T03:55:28;4.70;99.90
8591;DHT22;4333;48.322;14.340;2023-04-25T03:57:57;4.60;99.90
8591;DHT22;4333;48.322;14.340;2023-04-25T04:00:26;4.60;99.90
8591;DHT22;4333;48.322;14.340;2023-04-25T04:02:55;4.60;99.90
8591;DHT22;4333;48.322;14.340;2023-04-25T04:05:23;4.60;99.90
8591;DHT22;4333;48.322;14.340;2023-04-25T04:07:49;4.70;99.90
8591;DHT22;4333;48.322;14.340;2023-04-25T04:10:16;4.80;99.90
8591;DHT22;4333;48.322;14.340;2023-04-25T04:12:42;4.90;99.90
8591;DHT22;4333;48.322;14.340;2023-04-25T04:15:10;4.90;99.90
8591;DHT22;4333;48.322;14.340;2023-04-25T04:17:47;5.00;99.90
8591;DHT22;4333;48.322;14.340;2023-04-25T04:20:15;4.90;99.90
8591;DHT22;4333;48.322;14.340;2023-04-25T04:22:41;5.00;99.90
8591;DHT22;4333;48.322;14.340;2023-04-25T04:25:09;5.00;99.90
8591;DHT22;4333;48.322;14.340;2023-04-25T04:27:42;5.10;99.90
8591;DHT22;4333;48.322;14.340;2023-04-25T04:30:11;5.20;99.90
8591;DHT22;4333;48.322;14.340;2023-04-25T04:32:37;5.30;99.90
8591;DHT22;4333;48.322;14.340;2023-04-25T04:35:04;5.30;99.90
8591;DHT22;4333;48.322;14.340;2023-04-25T04:37:34;5.30;99.90
8591;DHT22;4333;48.322;14.340;2023-04-25T04:40:05;5.30;99.90
8591;DHT22;4333;48.322;14.340;2023-04-25T04:42:32;5.30;99.90
8591;DHT22;4333;48.322;14.340;2023-04-25T04:45:01;5.30;99.90
8591;DHT22;4333;48.322;14.340;2023-04-25T04:47:27;5.40;99.90
8591;DHT22;4333;48.322;14.340;2023-04-25T04:49:59;5.60;99.90
8591;DHT22;4333;48.322;14.340;2023-04-25T04:52:25;5.60;99.90
8591;DHT22;4333;48.322;14.340;2023-04-25T04:54:53;5.70;99.90
8591;DHT22;4333;48.322;14.340;2023-04-25T04:57:21;5.70;99.90
8591;DHT22;4333;48.322;14.340;2023-04-25T04:59:47;5.80;99.90
8591;DHT22;4333;48.322;14.340;2023-04-25T05:02:16;5.90;99.90
8591;DHT22;4333;48.322;14.340;2023-04-25T05:04:45;6.00;99.90
8591;DHT22;4333;48.322;14.340;2023-04-25T05:07:15;6.10;99.90
8591;DHT22;4333;48.322;14.340;2023-04-25T05:09:58;6.30;99.90
8591;DHT22;4333;48.322;14.340;2023-04-25T05:12:24;6.40;99.90
8591;DHT22;4333;48.322;14.340;2023-04-25T05:14:49;6.60;99.90
8591;DHT22;4333;48.322;14.340;2023-04-25T05:17:26;6.60;99.90
8591;DHT22;4333;48.322;14.340;2023-04-25T05:19:58;6.70;99.90
8591;DHT22;4333;48.322;14.340;2023-04-25T05:22:26;6.90;99.90
8591;DHT22;4333;48.322;14.340;2023-04-25T05:24:52;7.00;99.90
8591;DHT22;4333;48.322;14.340;2023-04-25T05:27:20;7.20;99.90
8591;DHT22;4333;48.322;14.340;2023-04-25T05:29:48;7.40;99.90
8591;DHT22;4333;48.322;14.340;2023-04-25T05:32:16;7.50;99.90
8591;DHT22;4333;48.322;14.340;2023-04-25T05:34:47;7.50;99.90
8591;DHT22;4333;48.322;14.340;2023-04-25T05:37:13;7.70;99.90
8591;DHT22;4333;48.322;14.340;2023-04-25T05:39:40;8.20;99.90
8591;DHT22;4333;48.322;14.340;2023-04-25T05:42:06;9.20;99.90
8591;DHT22;4333;48.322;14.340;2023-04-25T05:44:32;9.50;99.90
8591;DHT22;4333;48.322;14.340;2023-04-25T05:46:58;9.70;99.90
8591;DHT22;4333;48.322;14.340;2023-04-25T05:49:23;10.60;99.90
8591;DHT22;4333;48.322;14.340;2023-04-25T05:51:49;12.00;82.40
8591;DHT22;4333;48.322;14.340;2023-04-25T05:54:18;12.40;65.10
8591;DHT22;4333;48.322;14.340;2023-04-25T05:56:43;12.90;54.20
8591;DHT22;4333;48.322;14.340;2023-04-25T05:59:09;14.10;50.20
8591;DHT22;4333;48.322;14.340;2023-04-25T06:01:35;15.10;41.30
8591;DHT22;4333;48.322;14.340;2023-04-25T06:04:03;16.70;33.30
8591;DHT22;4333;48.322;14.340;2023-04-25T06:06:29;18.60;19.80
8591;DHT22;4333;48.322;14.340;2023-04-25T06:08:57;18.60;1.00
8591;DHT22;4333;48.322;14.340;2023-04-25T06:11:26;17.30;1.00
8591;DHT22;4333;48.322;14.340;2023-04-25T06:13:55;18.20;1.00
8591;DHT22;4333;48.322;14.340;2023-04-25T06:16:24;18.40;1.00
8591;DHT22;4333;48.322;14.340;2023-04-25T06:18:51;16.30;1.00
8591;DHT22;4333;48.322;14.340;2023-04-25T06:21:19;14.50;1.00
8591;DHT22;4333;48.322;14.340;2023-04-25T06:23:46;13.50;8.70
8591;DHT22;4333;48.322;14.340;2023-04-25T06:26:14;13.50;14.10
8591;DHT22;4333;48.322;14.340;2023-04-25T06:28:40;13.80;10.60
8591;DHT22;4333;48.322;14.340;2023-04-25T06:31:06;13.00;15.30
8591;DHT22;4333;48.322;14.340;2023-04-25T06:33:32;13.30;19.30
8591;DHT22;4333;48.322;14.340;2023-04-25T06:36:02;14.60;16.20
8591;DHT22;4333;48.322;14.340;2023-04-25T06:38:27;17.00;7.70
8591;DHT22;4333;48.322;14.340;2023-04-25T06:41:00;16.10;1.00
8591;DHT22;4333;48.322;14.340;2023-04-25T06:43:26;17.00;1.60
8591;DHT22;4333;48.322;14.340;2023-04-25T06:45:58;18.10;1.00
8591;DHT22;4333;48.322;14.340;2023-04-25T06:48:24;19.40;1.00
8591;DHT22;4333;48.322;14.340;2023-04-25T06:50:52;21.00;1.00
8591;DHT22;4333;48.322;14.340;2023-04-25T06:53:25;21.70;1.00
8591;DHT22;4333;48.322;14.340;2023-04-25T06:55:50;22.10;1.00
8591;DHT22;4333;48.322;14.340;2023-04-25T06:58:17;21.00;1.00
8591;DHT22;4333;48.322;14.340;2023-04-25T07:00:42;19.10;1.00
8591;DHT22;4333;48.322;14.340;2023-04-25T07:03:08;19.20;1.00
8591;DHT22;4333;48.322;14.340;2023-04-25T07:05:34;19.40;1.00
8591;DHT22;4333;48.322;14.340;2023-04-25T07:08:00;18.30;1.00
8591;DHT22;4333;48.322;14.340;2023-04-25T07:10:29;18.50;1.00
8591;DHT22;4333;48.322;14.340;2023-04-25T07:12:56;17.90;1.00
8591;DHT22;4333;48.322;14.340;2023-04-25T07:15:22;18.10;1.00
8591;DHT22;4333;48.322;14.340;2023-04-25T07:17:49;18.80;1.00
8591;DHT22;4333;48.322;14.340;2023-04-25T07:20:17;18.00;1.00
8591;DHT22;4333;48.322;14.340;2023-04-25T07:22:42;17.40;1.00
8591;DHT22;4333;48.322;14.340;2023-04-25T07:25:09;17.80;1.00
8591;DHT22;4333;48.322;14.340;2023-04-25T07:27:35;18.20;1.00
8591;DHT22;4333;48.322;14.340;2023-04-25T07:30:01;18.40;1.00
8591;DHT22;4333;48.322;14.340;2023-04-25T07:32:30;17.80;1.00
8591;DHT22;4333;48.322;14.340;2023-04-25T07:34:58;17.80;1.00
8591;DHT22;4333;48.322;14.340;2023-04-25T07:37:29;18.10;1.00
8591;DHT22;4333;48.322;14.340;2023-04-25T07:39:57;17.60;1.00
8591;DHT22;4333;48.322;14.340;2023-04-25T07:42:22;15.70;1.00
8591;DHT22;4333;48.322;14.340;2023-04-25T07:44:51;15.10;1.00
8591;DHT22;4333;48.322;14.340;2023-04-25T07:47:20;15.60;1.00
8591;DHT22;4333;48.322;14.340;2023-04-25T07:49:46;15.70;1.00
8591;DHT22;4333;48.322;14.340;2023-04-25T07:52:12;14.80;1.00
8591;DHT22;4333;48.322;14.340;2023-04-25T07:54:38;14.20;1.00
8591;DHT22;4333;48.322;14.340;2023-04-25T07:57:07;14.40;1.00
8591;DHT22;4333;48.322;14.340;2023-04-25T07:59:37;14.20;4.20
8591;DHT22;4333;48.322;14.340;2023-04-25T08:02:05;13.80;5.70
8591;DHT22;4333;48.322;14.340;2023-04-25T08:04:31;14.00;6.00
8591;DHT22;4333;48.322;14.340;2023-04-25T08:06:58;14.40;4.90
8591;DHT22;4333;48.322;14.340;2023-04-25T08:09:24;14.80;2.90
8591;DHT22;4333;48.322;14.340;2023-04-25T08:11:50;13.90;3.10
8591;DHT22;4333;48.322;14.340;2023-04-25T08:14:15;13.90;3.60
8591;DHT22;4333;48.322;14.340;2023-04-25T08:16:43;13.70;8.90
8591;DHT22;4333;48.322;14.340;2023-04-25T08:19:10;13.90;8.50
8591;DHT22;4333;48.322;14.340;2023-04-25T08:21:36;14.70;7.00
8591;DHT22;4333;48.322;14.340;2023-04-25T08:24:04;15.10;1.00
8591;DHT22;4333;48.322;14.340;2023-04-25T08:26:30;15.50;6.00
8591;DHT22;4333;48.322;14.340;2023-04-25T08:29:02;15.50;1.00
8591;DHT22;4333;48.322;14.340;2023-04-25T08:31:30;15.50;1.00
8591;DHT22;4333;48.322;14.340;2023-04-25T08:33:56;16.00;1.00
8591;DHT22;4333;48.322;14.340;2023-04-25T08:36:25;15.70;1.00
8591;DHT22;4333;48.322;14.340;2023-04-25T08:38:56;16.50;1.00
8591;DHT22;4333;48.322;14.340;2023-04-25T08:41:22;16.80;1.00
8591;DHT22;4333;48.322;14.340;2023-04-25T08:43:48;17.00;1.00
8591;DHT22;4333;48.322;14.340;2023-04-25T08:46:18;16.40;1.00
8591;DHT22;4333;48.322;14.340;2023-04-25T08:48:45;15.20;1.00
8591;DHT22;4333;48.322;14.340;2023-04-25T08:51:21;15.60;1.00
8591;DHT22;4333;48.322;14.340;2023-04-25T08:53:51;15.80;1.00
8591;DHT22;4333;48.322;14.340;2023-04-25T08:56:17;15.90;1.00
8591;DHT22;4333;48.322;14.340;2023-04-25T08:58:46;15.90;1.00
8591;DHT22;4333;48.322;14.340;2023-04-25T09:01:12;15.70;1.00
8591;DHT22;4333;48.322;14.340;2023-04-25T09:03:38;15.10;1.00
8591;DHT22;4333;48.322;14.340;2023-04-25T09:06:06;14.80;1.00
8591;DHT22;4333;48.322;14.340;2023-04-25T09:08:36;14.50;1.00
8591;DHT22;4333;48.322;14.340;2023-04-25T09:11:03;14.40;1.00
8591;DHT22;4333;48.322;14.340;2023-04-25T09:13:29;14.30;1.00
8591;DHT22;4333;48.322;14.340;2023-04-25T09:15:57;14.20;1.00
8591;DHT22;4333;48.322;14.340;2023-04-25T09:18:29;14.20;1.00
8591;DHT22;4333;48.322;14.340;2023-04-25T09:21:09;14.10;1.00
8591;DHT22;4333;48.322;14.340;2023-04-25T09:23:45;14.90;1.00
8591;DHT22;4333;48.322;14.340;2023-04-25T09:26:18;15.70;1.00
8591;DHT22;4333;48.322;14.340;2023-04-25T09:28:48;15.90;1.00
8591;DHT22;4333;48.322;14.340;2023-04-25T09:31:24;15.40;1.00
8591;DHT22;4333;48.322;14.340;2023-04-25T09:33:59;15.90;1.00
8591;DHT22;4333;48.322;14.340;2023-04-25T09:36:26;15.00;1.00
8591;DHT22;4333;48.322;14.340;2023-04-25T09:38:52;14.90;1.00
8591;DHT22;4333;48.322;14.340;2023-04-25T09:41:23;15.50;1.00
8591;DHT22;4333;48.322;14.340;2023-04-25T09:43:49;15.90;1.00
8591;DHT22;4333;48.322;14.340;2023-04-25T09:46:16;16.10;1.00
8591;DHT22;4333;48.322;14.340;2023-04-25T09:48:48;16.20;1.00
8591;DHT22;4333;48.322;14.340;2023-04-25T09:51:15;16.20;1.00
8591;DHT22;4333;48.322;14.340;2023-04-25T09:53:45;16.20;1.00
8591;DHT22;4333;48.322;14.340;2023-04-25T09:56:12;16.20;1.00
8591;DHT22;4333;48.322;14.340;2023-04-25T09:58:40;16.00;1.00
8591;DHT22;4333;48.322;14.340;2023-04-25T10:01:09;16.20;1.00
8591;DHT22;4333;48.322;14.340;2023-04-25T10:03:36;15.90;1.00
8591;DHT22;4333;48.322;14.340;2023-04-25T10:06:08;16.00;1.00
8591;DHT22;4333;48.322;14.340;2023-04-25T10:08:39;16.10;1.00
8591;DHT22;4333;48.322;14.340;2023-04-25T10:11:10;16.00;1.00
8591;DHT22;4333;48.322;14.340;2023-04-25T10:13:40;16.20;1.00
8591;DHT22;4333;48.322;14.340;2023-04-25T10:16:07;16.30;1.00
8591;DHT22;4333;48.322;14.340;2023-04-25T10:18:35;16.20;1.00
8591;DHT22;4333;48.322;14.340;2023-04-25T10:21:04;16.20;1.00
8591;DHT22;4333;48.322;14.340;2023-04-25T10:23:31;16.10;1.00
8591;DHT22;4333;48.322;14.340;2023-04-25T10:26:00;15.50;1.00
8591;DHT22;4333;48.322;14.340;2023-04-25T10:28:26;15.50;1.00
8591;DHT22;4333;48.322;14.340;2023-04-25T10:33:40;15.60;1.00
8591;DHT22;4333;48.322;14.340;2023-04-25T10:36:20;15.30;1.00
8591;DHT22;4333;48.322;14.340;2023-04-25T10:38:49;15.20;1.00
8591;DHT22;4333;48.322;14.340;2023-04-25T10:41:20;15.20;1.00
8591;DHT22;4333;48.322;14.340;2023-04-25T10:43:50;15.40;1.00
8591;DHT22;4333;48.322;14.340;2023-04-25T10:46:30;15.70;1.00
8591;DHT22;4333;48.322;14.340;2023-04-25T10:49:00;16.00;1.00
8591;DHT22;4333;48.322;14.340;2023-04-25T10:51:27;16.30;1.00
8591;DHT22;4333;48.322;14.340;2023-04-25T10:54:07;16.40;1.00
8591;DHT22;4333;48.322;14.340;2023-04-25T10:59:16;16.00;1.00
8591;DHT22;4333;48.322;14.340;2023-04-25T11:01:52;16.10;1.00
8591;DHT22;4333;48.322;14.340;2023-04-25T11:09:37;15.30;1.00
8591;DHT22;4333;48.322;14.340;2023-04-25T11:12:07;15.40;1.00
8591;DHT22;4333;48.322;14.340;2023-04-25T11:14:33;15.20;1.00
8591;DHT22;4333;48.322;14.340;2023-04-25T11:17:01;14.50;1.00
8591;DHT22;4333;48.322;14.340;2023-04-25T11:19:28;14.10;1.00
8591;DHT22;4333;48.322;14.340;2023-04-25T11:22:01;13.30;1.00
8591;DHT22;4333;48.322;14.340;2023-04-25T11:24:35;12.90;6.10
8591;DHT22;4333;48.322;14.340;2023-04-25T11:27:04;12.70;12.50
8591;DHT22;4333;48.322;14.340;2023-04-25T11:29:32;12.70;13.00
8591;DHT22;4333;48.322;14.340;2023-04-25T11:31:58;12.60;19.10
8591;DHT22;4333;48.322;14.340;2023-04-25T11:34:25;12.50;22.70
8591;DHT22;4333;48.322;14.340;2023-04-25T11:36:52;12.60;24.20
8591;DHT22;4333;48.322;14.340;2023-04-25T11:39:19;12.70;19.30
8591;DHT22;4333;48.322;14.340;2023-04-25T11:41:46;12.90;24.30
8591;DHT22;4333;48.322;14.340;2023-04-25T11:44:19;13.00;17.60
8591;DHT22;4333;48.322;14.340;2023-04-25T11:46:46;13.20;13.70
8591;DHT22;4333;48.322;14.340;2023-04-25T11:49:30;13.50;13.90
8591;DHT22;4333;48.322;14.340;2023-04-25T11:52:01;13.00;10.20
8591;DHT22;4333;48.322;14.340;2023-04-25T11:54:29;13.00;10.10
8591;DHT22;4333;48.322;14.340;2023-04-25T11:56:55;13.80;20.00
8591;DHT22;4333;48.322;14.340;2023-04-25T11:59:25;14.60;12.20
8591;DHT22;4333;48.322;14.340;2023-04-25T12:04:30;15.20;1.00
8591;DHT22;4333;48.322;14.340;2023-04-25T12:06:57;14.20;1.00
8591;DHT22;4333;48.322;14.340;2023-04-25T12:09:30;14.10;1.00
8591;DHT22;4333;48.322;14.340;2023-04-25T12:12:00;14.60;1.00
8591;DHT22;4333;48.322;14.340;2023-04-25T12:14:34;14.50;1.00
8591;DHT22;4333;48.322;14.340;2023-04-25T12:17:04;13.80;1.00
8591;DHT22;4333;48.322;14.340;2023-04-25T12:19:36;14.40;1.00
8591;DHT22;4333;48.322;14.340;2023-04-25T12:22:23;14.50;1.00
8591;DHT22;4333;48.322;14.340;2023-04-25T12:24:49;13.80;1.00
8591;DHT22;4333;48.322;14.340;2023-04-25T12:27:16;13.80;1.00
8591;DHT22;4333;48.322;14.340;2023-04-25T12:29:51;14.10;1.70
8591;DHT22;4333;48.322;14.340;2023-04-25T12:32:18;14.60;1.20
8591;DHT22;4333;48.322;14.340;2023-04-25T12:34:49;14.80;1.00
8591;DHT22;4333;48.322;14.340;2023-04-25T12:37:15;14.30;1.00
8591;DHT22;4333;48.322;14.340;2023-04-25T12:39:41;14.10;1.00
8591;DHT22;4333;48.322;14.340;2023-04-25T12:42:10;14.40;1.00
8591;DHT22;4333;48.322;14.340;2023-04-25T12:44:38;14.80;1.00
8591;DHT22;4333;48.322;14.340;2023-04-25T12:47:04;14.90;1.00
8591;DHT22;4333;48.322;14.340;2023-04-25T12:49:30;13.60;1.10
8591;DHT22;4333;48.322;14.340;2023-04-25T12:51:57;12.30;23.90
8591;DHT22;4333;48.322;14.340;2023-04-25T12:54:22;11.70;42.90
8591;DHT22;4333;48.322;14.340;2023-04-25T12:56:48;11.20;55.80
8591;DHT22;4333;48.322;14.340;2023-04-25T12:59:15;11.00;75.70
8591;DHT22;4333;48.322;14.340;2023-04-25T13:01:43;10.50;73.50
8591;DHT22;4333;48.322;14.340;2023-04-25T13:04:10;10.20;92.20
8591;DHT22;4333;48.322;14.340;2023-04-25T13:06:36;10.00;94.40
8591;DHT22;4333;48.322;14.340;2023-04-25T13:09:02;10.10;99.90
8591;DHT22;4333;48.322;14.340;2023-04-25T13:11:30;10.40;99.90
8591;DHT22;4333;48.322;14.340;2023-04-25T13:13:56;10.10;84.00
8591;DHT22;4333;48.322;14.340;2023-04-25T13:16:21;10.10;90.70
8591;DHT22;4333;48.322;14.340;2023-04-25T13:18:48;10.00;90.80
8591;DHT22;4333;48.322;14.340;2023-04-25T13:21:16;10.50;99.80
8591;DHT22;4333;48.322;14.340;2023-04-25T13:23:41;11.00;99.90
8591;DHT22;4333;48.322;14.340;2023-04-25T13:26:11;11.30;91.80
8591;DHT22;4333;48.322;14.340;2023-04-25T13:28:37;11.40;69.90
8591;DHT22;4333;48.322;14.340;2023-04-25T13:31:03;11.40;59.40
8591;DHT22;4333;48.322;14.340;2023-04-25T13:33:29;11.30;57.70
8591;DHT22;4333;48.322;14.340;2023-04-25T13:35:55;11.20;62.80
8591;DHT22;4333;48.322;14.340;2023-04-25T13:38:23;11.40;60.60
8591;DHT22;4333;48.322;14.340;2023-04-25T13:40:50;11.70;66.10
8591;DHT22;4333;48.322;14.340;2023-04-25T13:43:20;12.10;65.10
8591;DHT22;4333;48.322;14.340;2023-04-25T13:45:51;12.00;47.80
8591;DHT22;4333;48.322;14.340;2023-04-25T13:48:34;11.80;43.50
8591;DHT22;4333;48.322;14.340;2023-04-25T13:51:00;11.80;46.60
8591;DHT22;4333;48.322;14.340;2023-04-25T13:53:28;11.80;52.80
8591;DHT22;4333;48.322;14.340;2023-04-25T13:55:54;11.70;59.30
8591;DHT22;4333;48.322;14.340;2023-04-25T13:58:20;12.30;59.00
8591;DHT22;4333;48.322;14.340;2023-04-25T14:00:46;12.70;58.70
8591;DHT22;4333;48.322;14.340;2023-04-25T14:03:13;13.20;53.00
8591;DHT22;4333;48.322;14.340;2023-04-25T14:05:41;13.40;47.10
8591;DHT22;4333;48.322;14.340;2023-04-25T14:08:10;13.40;40.50
8591;DHT22;4333;48.322;14.340;2023-04-25T14:10:38;13.70;45.30
8591;DHT22;4333;48.322;14.340;2023-04-25T14:13:06;13.60;42.70
8591;DHT22;4333;48.322;14.340;2023-04-25T14:15:35;13.60;38.10
8591;DHT22;4333;48.322;14.340;2023-04-25T14:18:03;13.40;39.90
8591;DHT22;4333;48.322;14.340;2023-04-25T14:20:29;12.70;36.10
8591;DHT22;4333;48.322;14.340;2023-04-25T14:22:55;12.40;42.20
8591;DHT22;4333;48.322;14.340;2023-04-25T14:25:23;12.50;47.10
8591;DHT22;4333;48.322;14.340;2023-04-25T14:27:49;12.80;47.40
8591;DHT22;4333;48.322;14.340;2023-04-25T14:30:19;13.00;43.80
8591;DHT22;4333;48.322;14.340;2023-04-25T14:32:48;13.20;43.40
8591;DHT22;4333;48.322;14.340;2023-04-25T14:35:14;13.40;42.50
8591;DHT22;4333;48.322;14.340;2023-04-25T14:37:40;13.50;39.20
8591;DHT22;4333;48.322;14.340;2023-04-25T14:40:09;13.00;39.60
8591;DHT22;4333;48.322;14.340;2023-04-25T14:42:36;13.00;35.00
8591;DHT22;4333;48.322;14.340;2023-04-25T14:45:04;13.10;30.70
8591;DHT22;4333;48.322;14.340;2023-04-25T14:47:38;13.10;29.90
8591;DHT22;4333;48.322;14.340;2023-04-25T14:50:06;13.10;31.50
8591;DHT22;4333;48.322;14.340;2023-04-25T14:52:32;13.10;28.70
8591;DHT22;4333;48.322;14.340;2023-04-25T14:54:58;13.00;28.20
8591;DHT22;4333;48.322;14.340;2023-04-25T14:57:25;12.60;30.70
8591;DHT22;4333;48.322;14.340;2023-04-25T14:59:51;12.80;33.10
8591;DHT22;4333;48.322;14.340;2023-04-25T15:02:17;13.00;27.40
8591;DHT22;4333;48.322;14.340;2023-04-25T15:04:43;12.90;26.30
8591;DHT22;4333;48.322;14.340;2023-04-25T15:10:28;13.50;25.60
8591;DHT22;4333;48.322;14.340;2023-04-25T15:12:54;13.90;22.10
8591;DHT22;4333;48.322;14.340;2023-04-25T15:15:22;13.80;16.80
8591;DHT22;4333;48.322;14.340;2023-04-25T15:17:51;13.80;14.50
8591;DHT22;4333;48.322;14.340;2023-04-25T15:20:17;13.90;17.40
8591;DHT22;4333;48.322;14.340;2023-04-25T15:22:43;14.20;18.30
8591;DHT22;4333;48.322;14.340;2023-04-25T15:25:16;14.30;15.70
8591;DHT22;4333;48.322;14.340;2023-04-25T15:27:53;14.30;11.80
8591;DHT22;4333;48.322;14.340;2023-04-25T15:30:21;14.50;13.60
8591;DHT22;4333;48.322;14.340;2023-04-25T15:32:47;14.60;11.80
8591;DHT22;4333;48.322;14.340;2023-04-25T15:35:16;14.50;12.50
8591;DHT22;4333;48.322;14.340;2023-04-25T15:37:42;14.50;13.10
8591;DHT22;4333;48.322;14.340;2023-04-25T15:40:15;14.60;16.30
8591;DHT22;4333;48.322;14.340;2023-04-25T15:42:43;14.30;11.50
8591;DHT22;4333;48.322;14.340;2023-04-25T15:45:13;14.10;11.90
8591;DHT22;4333;48.322;14.340;2023-04-25T15:47:40;14.00;12.20
8591;DHT22;4333;48.322;14.340;2023-04-25T15:50:09;13.90;14.00
8591;DHT22;4333;48.322;14.340;2023-04-25T15:52:36;14.00;14.40
8591;DHT22;4333;48.322;14.340;2023-04-25T15:58:09;13.80;16.50
8591;DHT22;4333;48.322;14.340;2023-04-25T16:00:35;13.40;17.90
8591;DHT22;4333;48.322;14.340;2023-04-25T16:03:02;12.90;15.10
8591;DHT22;4333;48.322;14.340;2023-04-25T16:05:32;12.00;26.40
8591;DHT22;4333;48.322;14.340;2023-04-25T16:07:57;11.40;33.20
8591;DHT22;4333;48.322;14.340;2023-04-25T16:10:24;10.60;37.10
8591;DHT22;4333;48.322;14.340;2023-04-25T16:12:51;10.10;47.20
8591;DHT22;4333;48.322;14.340;2023-04-25T16:15:17;9.60;52.50
8591;DHT22;4333;48.322;14.340;2023-04-25T16:17:43;9.10;60.00
8591;DHT22;4333;48.322;14.340;2023-04-25T16:20:10;8.70;73.60
8591;DHT22;4333;48.322;14.340;2023-04-25T16:22:42;8.50;80.20